createdAt,value
2019-04-26T00:02:25.189Z,100.00
2019-04-26T00:07:30.810Z,99.94
2019-04-26T00:12:45.120Z,99.72
2019-04-26T00:17:54.734Z,99.68
2019-04-26T00:23:00.241Z,99.77
2019-04-26T00:28:05.686Z,99.74
2019-04-26T00:33:12.398Z,99.95
2019-04-26T00:38:18.292Z,99.69
2019-04-26T00:43:24.972Z,99.51
2019-04-26T00:48:32.577Z,99.35
2019-04-26T00:53:39.694Z,99.13
2019-04-26T00:58:45.341Z,99.16
2019-04-26T01:03:50.924Z,99.11
2019-04-26T01:08:56.233Z,99.01
2019-04-26T01:14:01.714Z,98.61
2019-04-26T01:19:08.900Z,97.72
2019-04-26T01:24:18.253Z,97.00
2019-04-26T01:29:26.382Z,96.52
2019-04-26T01:34:33.613Z,96.32
2019-04-26T01:39:41.782Z,96.26
2019-04-26T01:45:01.203Z,96.16
2019-04-26T01:50:07.761Z,95.85
2019-04-26T01:55:13.851Z,96.28
2019-04-26T02:00:28.073Z,96.67
2019-04-26T02:05:33.691Z,97.25
2019-04-26T02:10:39.302Z,97.47
2019-04-26T02:15:44.742Z,97.76
2019-04-26T02:20:57.542Z,98.37
2019-04-26T02:26:12.001Z,99.12
2019-04-26T02:31:17.728Z,99.58
2019-04-26T02:36:25.362Z,100.00
2019-04-26T02:41:33.493Z,100.00
2019-04-26T02:46:50.822Z,100.00
2019-04-26T02:52:03.924Z,100.00
2019-04-26T02:57:09.502Z,100.00
2019-04-26T03:02:21.913Z,100.00
2019-04-26T03:07:44.213Z,100.00
2019-04-26T03:12:52.850Z,100.00
2019-04-26T03:18:11.053Z,100.00
2019-04-26T03:23:41.811Z,100.00
2019-04-26T03:28:44.483Z,100.00
2019-04-26T03:34:01.788Z,100.00
2019-04-26T03:39:23.032Z,100.00
2019-04-26T03:44:38.996Z,100.00
2019-04-26T03:49:57.912Z,100.00
2019-04-26T03:55:08.743Z,100.00
2019-04-26T04:00:26.203Z,100.00
2019-04-26T04:05:44.196Z,100.00
2019-04-26T04:10:55.841Z,100.00
2019-04-26T04:16:01.965Z,100.00
2019-04-26T04:21:22.433Z,100.00
2019-04-26T04:26:39.603Z,100.00
2019-04-26T04:31:49.344Z,100.00
2019-04-26T04:36:57.873Z,100.00
2019-04-26T04:42:22.444Z,100.00
2019-04-26T04:47:37.164Z,100.00
2019-04-26T04:52:51.765Z,100.00
2019-04-26T04:58:06.093Z,100.00
2019-04-26T05:03:28.623Z,100.00
2019-04-26T05:08:51.182Z,100.00
2019-04-26T05:14:04.423Z,100.00
2019-04-26T05:19:27.097Z,100.00
2019-04-26T05:24:40.461Z,100.00
2019-04-26T05:29:56.155Z,100.00
2019-04-26T05:35:12.518Z,100.00
2019-04-26T05:40:35.273Z,100.00
2019-04-26T05:46:04.153Z,100.00
2019-04-26T05:51:34.236Z,100.00
2019-04-26T05:57:02.715Z,100.00
2019-04-26T06:02:32.041Z,100.00
2019-04-26T06:07:58.528Z,100.00
2019-04-26T06:13:28.003Z,100.00
2019-04-26T06:18:47.873Z,100.00
2019-04-26T06:24:07.052Z,100.00
2019-04-26T06:29:20.230Z,100.00
2019-04-26T06:34:39.344Z,100.00
2019-04-26T06:40:02.853Z,100.00
2019-04-26T06:45:30.983Z,100.00
2019-04-26T06:50:44.372Z,100.00
2019-04-26T06:56:03.014Z,100.00
2019-04-26T07:01:25.946Z,100.00
2019-04-26T07:06:38.810Z,100.00
2019-04-26T07:12:05.774Z,100.00
2019-04-26T07:17:17.672Z,100.00
2019-04-26T07:22:41.370Z,100.00
2019-04-26T07:28:03.850Z,100.00
2019-04-26T07:33:19.978Z,100.00
2019-04-26T07:38:54.636Z,100.00
2019-04-26T07:44:20.901Z,100.00
2019-04-26T07:49:53.552Z,100.00
2019-04-26T07:55:26.433Z,100.00
2019-04-26T08:00:44.990Z,100.00
2019-04-26T08:06:01.581Z,100.00
2019-04-26T08:11:12.951Z,100.00
2019-04-26T08:16:30.540Z,100.00
2019-04-26T08:21:42.609Z,100.00
2019-04-26T08:26:55.084Z,100.00
2019-04-26T08:32:05.413Z,100.00
2019-04-26T08:37:19.669Z,100.00
2019-04-26T08:42:30.533Z,100.00
2019-04-26T08:47:45.977Z,100.00
2019-04-26T08:52:57.876Z,100.00
2019-04-26T08:58:08.160Z,100.00
2019-04-26T09:03:25.678Z,100.00
2019-04-26T09:08:39.163Z,100.00
2019-04-26T09:13:49.871Z,98.20
2019-04-26T09:18:59.439Z,95.71
2019-04-26T09:24:10.190Z,90.99
2019-04-26T09:29:30.527Z,95.26
2019-04-26T09:34:36.623Z,91.41
2019-04-26T09:39:43.411Z,90.94
2019-04-26T09:44:57.037Z,88.07
2019-04-26T09:50:11.346Z,84.56
2019-04-26T09:55:17.803Z,83.03
2019-04-26T10:00:27.851Z,79.77
2019-04-26T10:05:34.030Z,77.59
2019-04-26T10:10:39.772Z,75.07
2019-04-26T10:15:58.057Z,79.82
2019-04-26T10:21:01.475Z,86.06
2019-04-26T10:26:07.296Z,89.31
2019-04-26T10:31:13.537Z,89.49
2019-04-26T10:36:21.215Z,86.60
2019-04-26T10:41:33.663Z,83.04
2019-04-26T10:46:34.394Z,79.77
2019-04-26T10:51:45.330Z,72.63
2019-04-26T10:56:55.250Z,69.96
2019-04-26T11:02:00.781Z,71.06
2019-04-26T11:07:06.553Z,66.17
2019-04-26T11:12:16.248Z,64.65
2019-04-26T11:17:21.920Z,66.78
2019-04-26T11:22:29.354Z,64.22
2019-04-26T11:27:34.435Z,58.42
2019-04-26T11:32:40.220Z,60.70
2019-04-26T11:37:50.504Z,66.05
2019-04-26T11:42:54.141Z,65.65
2019-04-26T11:47:59.655Z,62.53
2019-04-26T11:53:06.142Z,61.19
2019-04-26T11:58:12.571Z,63.40
2019-04-26T12:03:21.151Z,66.20
2019-04-26T12:08:32.502Z,67.48
2019-04-26T12:13:38.121Z,67.13
2019-04-26T12:18:44.093Z,69.59
2019-04-26T12:23:51.278Z,69.61
2019-04-26T12:28:58.469Z,72.10
2019-04-26T12:34:04.121Z,66.28
2019-04-26T12:39:11.864Z,68.06
2019-04-26T12:44:17.384Z,67.53
2019-04-26T12:49:24.271Z,69.66
2019-04-26T12:54:30.374Z,70.03
2019-04-26T12:59:43.904Z,71.65
2019-04-26T13:04:44.528Z,76.44
2019-04-26T13:10:01.016Z,74.43
2019-04-26T13:15:32.430Z,73.41
2019-04-26T13:20:39.183Z,71.47
2019-04-26T13:25:44.781Z,70.40
2019-04-26T13:30:50.297Z,71.99
2019-04-26T13:36:02.855Z,75.14
2019-04-26T13:41:04.629Z,76.47
2019-04-26T13:46:19.003Z,77.85
2019-04-26T13:51:25.715Z,75.58
2019-04-26T13:56:32.099Z,76.73
2019-04-26T14:01:38.344Z,78.76
2019-04-26T14:06:43.836Z,78.20
2019-04-26T14:11:49.603Z,78.51
2019-04-26T14:16:55.764Z,78.82
2019-04-26T14:22:03.209Z,80.79
2019-04-26T14:27:15.300Z,80.72
2019-04-26T14:32:23.382Z,82.06
2019-04-26T14:37:29.524Z,83.14
2019-04-26T14:42:42.193Z,88.29
2019-04-26T14:47:47.654Z,89.30
2019-04-26T14:52:49.796Z,88.89
2019-04-26T14:57:56.864Z,89.24
2019-04-26T15:03:12.301Z,88.52
2019-04-26T15:08:18.021Z,88.54
2019-04-26T15:13:23.705Z,88.70
2019-04-26T15:18:33.348Z,88.17
2019-04-26T15:23:37.169Z,90.05
2019-04-26T15:28:43.679Z,93.79
2019-04-26T15:33:50.179Z,97.51
2019-04-26T15:38:56.475Z,100.00
2019-04-26T15:44:11.363Z,100.00
2019-04-26T15:49:29.796Z,100.00
2019-04-26T15:54:34.823Z,100.00
2019-04-26T15:59:40.264Z,100.00
2019-04-26T16:04:47.444Z,100.00
2019-04-26T16:09:53.854Z,100.00
2019-04-26T16:14:59.898Z,100.00
2019-04-26T16:20:07.321Z,100.00
2019-04-26T16:25:12.982Z,100.00
2019-04-26T16:30:28.401Z,100.00
2019-04-26T16:35:35.910Z,100.00
2019-04-26T16:40:47.562Z,100.00
2019-04-26T16:45:48.805Z,100.00
2019-04-26T16:50:54.512Z,100.00
2019-04-26T16:56:00.073Z,100.00
2019-04-26T17:01:10.123Z,100.00
2019-04-26T17:06:14.567Z,100.00
2019-04-26T17:11:20.445Z,100.00
2019-04-26T17:16:29.607Z,100.00
2019-04-26T17:21:38.159Z,100.00
2019-04-26T17:26:50.127Z,100.00
2019-04-26T17:31:55.813Z,100.00
2019-04-26T17:37:09.382Z,100.00
2019-04-26T17:42:10.955Z,100.00
2019-04-26T17:47:16.445Z,100.00
2019-04-26T17:52:25.016Z,100.00
2019-04-26T17:57:34.712Z,100.00
2019-04-26T18:02:42.168Z,100.00
2019-04-26T18:07:56.256Z,100.00
2019-04-26T18:12:54.118Z,100.00
2019-04-26T18:18:09.703Z,100.00
2019-04-26T18:23:18.574Z,100.00
2019-04-26T18:28:25.089Z,100.00
2019-04-26T18:33:32.877Z,100.00
2019-04-26T18:38:38.341Z,99.75
2019-04-26T18:43:43.743Z,99.06
2019-04-26T18:48:49.238Z,98.01
2019-04-26T18:54:05.026Z,96.93
2019-04-26T18:59:13.488Z,96.06
2019-04-26T19:04:19.025Z,95.30
2019-04-26T19:09:28.196Z,93.70
2019-04-26T19:14:49.586Z,93.37
2019-04-26T19:20:03.136Z,93.96
2019-04-26T19:25:18.937Z,93.90
2019-04-26T19:30:17.169Z,92.36
2019-04-26T19:35:22.890Z,91.80
2019-04-26T19:40:28.458Z,90.71
2019-04-26T19:45:46.137Z,89.33
2019-04-26T19:50:57.244Z,89.54
2019-04-26T19:56:11.167Z,90.17
2019-04-26T20:01:20.733Z,90.05
2019-04-26T20:06:26.718Z,89.14
2019-04-26T20:11:31.904Z,89.29
2019-04-26T20:16:40.751Z,89.80
2019-04-26T20:21:49.625Z,90.16
2019-04-26T20:26:54.381Z,89.11
2019-04-26T20:32:07.481Z,88.01
2019-04-26T20:37:16.159Z,88.67
2019-04-26T20:42:22.346Z,87.63
2019-04-26T20:47:27.996Z,88.00
2019-04-26T20:52:33.735Z,87.37
2019-04-26T20:57:42.057Z,88.50
2019-04-26T21:02:46.595Z,90.75
2019-04-26T21:07:52.403Z,91.65
2019-04-26T21:12:57.893Z,92.35
2019-04-26T21:18:04.246Z,92.57
2019-04-26T21:23:10.294Z,93.08
2019-04-26T21:28:29.072Z,92.69
2019-04-26T21:33:42.938Z,91.99
2019-04-26T21:38:53.014Z,91.13
2019-04-26T21:43:59.061Z,90.02
2019-04-26T21:49:04.524Z,90.60
2019-04-26T21:54:10.257Z,91.37
2019-04-26T21:59:16.055Z,91.06
2019-04-26T22:04:22.770Z,89.82
2019-04-26T22:09:48.238Z,92.29
2019-04-26T22:15:03.487Z,93.00
2019-04-26T22:20:19.156Z,92.45
2019-04-26T22:25:26.343Z,91.85
2019-04-26T22:30:33.132Z,90.93
2019-04-26T22:35:38.821Z,90.04
2019-04-26T22:40:44.221Z,89.62
2019-04-26T22:45:54.223Z,89.14
2019-04-26T22:50:59.897Z,87.00
2019-04-26T22:56:05.634Z,86.00
2019-04-26T23:01:11.337Z,86.63
2019-04-26T23:06:17.097Z,87.41
2019-04-26T23:11:23.165Z,87.76
2019-04-26T23:16:44.324Z,85.79
2019-04-26T23:21:52.870Z,85.87
2019-04-26T23:26:55.562Z,86.40
2019-04-26T23:32:01.063Z,87.28
2019-04-26T23:37:06.583Z,88.76
2019-04-26T23:42:12.218Z,89.29
2019-04-26T23:47:23.004Z,89.47
2019-04-26T23:52:25.968Z,85.55
2019-04-26T23:57:34.734Z,86.00
